PWSweather.com
Personal Weather Stations
Station Observations
IONTARIO88
Lincoln, ON L0R

Lincoln, ON L0R

Lat: 43.1763563, Lon: -79.4719525

Elevation: 297

Station Type: Davis Vantage Pro 2 Plus

http://www.beamsvillewx.ca

High Low Average
Temperature 37.6°F3.1°C 19.9°F-6.7°C 33.1°F0.6°C
Dew Point 33.9°F1.1°C 17.7°F-7.9°C 28.5°F-1.9°C
Winds 14.0 mph 22.5 kmh 1.0 mph 1.6 kmh 6.0 mph WSW9.7 kmh WSW
Wind Gusts 29.0 mph46.7 kmh 4.0 mph6.4 kmh 14.0 mph22.5 kmh
Humidity 92% 49% 84%
Pressure 29.88 in1011.9 mb 29.70 in1005.8 mb -
Precipitation 0.26 in6.6 mm - -
Hour Temp Dew Point Humidity Winds Wind Gusts Pressure Precip Precip Rate Daily Precip Total
12:00 AM 31.6°F-0.2°C 20.8°F-6.2°C 64% 7.0 mph SSW11.3 kmh SSW 18.0 mph29.0 kmh 29.91 in1012.9 mb 0.00 in0.0 mm 0.00 in0.0 mm 0.00 in0.0 mm
12:15 AM 32.2°F0.1°C 19.8°F-6.8°C 60% 9.0 mph SSW14.5 kmh SSW 22.0 mph35.4 kmh 29.89 in1012.2 mb 0.00 in0.0 mm 0.00 in0.0 mm 0.00 in0.0 mm
12:30 AM 32.5°F0.3°C 19.4°F-7.0°C 58% 9.0 mph S14.5 kmh S 22.0 mph35.4 kmh 29.88 in1011.9 mb 0.00 in0.0 mm 0.00 in0.0 mm 0.00 in0.0 mm
12:45 AM 32.7°F0.4°C 19.1°F-7.2°C 57% 8.0 mph SSW12.9 kmh SSW 20.0 mph32.2 kmh 29.88 in1011.9 mb 0.00 in0.0 mm 0.00 in0.0 mm 0.00 in0.0 mm
01:00 AM 32.9°F0.5°C 18.9°F-7.3°C 56% 7.0 mph SSW11.3 kmh SSW 17.0 mph27.4 kmh 29.87 in1011.5 mb 0.00 in0.0 mm 0.00 in0.0 mm 0.00 in0.0 mm
01:15 AM 33.3°F0.7°C 18.8°F-7.3°C 55% 8.0 mph SSW12.9 kmh SSW 19.0 mph30.6 kmh 29.87 in1011.5 mb 0.00 in0.0 mm 0.00 in0.0 mm 0.00 in0.0 mm
01:30 AM 33.1°F0.6°C 19.1°F-7.2°C 56% 6.0 mph SSW9.7 kmh SSW 18.0 mph29.0 kmh 29.87 in1011.5 mb 0.00 in0.0 mm 0.00 in0.0 mm 0.00 in0.0 mm
01:45 AM 33.4°F0.8°C 19.4°F-7.0°C 56% 8.0 mph SW12.9 kmh SW 18.0 mph29.0 kmh 29.87 in1011.5 mb 0.00 in0.0 mm 0.00 in0.0 mm 0.00 in0.0 mm
02:00 AM 33.4°F0.8°C 19.8°F-6.8°C 57% 8.0 mph SW12.9 kmh SW 18.0 mph29.0 kmh 29.86 in1011.2 mb 0.00 in0.0 mm 0.00 in0.0 mm 0.00 in0.0 mm
02:15 AM 33.4°F0.8°C 20.2°F-6.6°C 58% 7.0 mph SW11.3 kmh SW 17.0 mph27.4 kmh 29.85 in1010.8 mb 0.00 in0.0 mm 0.00 in0.0 mm 0.00 in0.0 mm
02:30 AM 33.8°F1.0°C 20.6°F-6.3°C 58% 7.0 mph SSW11.3 kmh SSW 17.0 mph27.4 kmh 29.84 in1010.5 mb 0.00 in0.0 mm 0.00 in0.0 mm 0.00 in0.0 mm
02:45 AM 34.2°F1.2°C 20.1°F-6.6°C 56% 7.0 mph SSW11.3 kmh SSW 18.0 mph29.0 kmh 29.84 in1010.5 mb 0.00 in0.0 mm 0.00 in0.0 mm 0.00 in0.0 mm
03:00 AM 35.1°F1.7°C 19.6°F-6.9°C 53% 8.0 mph SW12.9 kmh SW 19.0 mph30.6 kmh 29.84 in1010.5 mb 0.00 in0.0 mm 0.00 in0.0 mm 0.00 in0.0 mm
03:15 AM 35.6°F2.0°C 19.2°F-7.1°C 51% 8.0 mph SW12.9 kmh SW 20.0 mph32.2 kmh 29.84 in1010.5 mb 0.00 in0.0 mm 0.00 in0.0 mm 0.00 in0.0 mm
03:30 AM 36.1°F2.3°C 18.8°F-7.3°C 49% 10.0 mph SW16.1 kmh SW 24.0 mph38.6 kmh 29.85 in1010.8 mb 0.00 in0.0 mm 0.00 in0.0 mm 0.00 in0.0 mm
03:45 AM 36.1°F2.3°C 19.3°F-7.1°C 50% 8.0 mph SW12.9 kmh SW 22.0 mph35.4 kmh 29.86 in1011.2 mb 0.00 in0.0 mm 0.00 in0.0 mm 0.00 in0.0 mm
04:00 AM 36.3°F2.4°C 20.4°F-6.4°C 52% 7.0 mph SW11.3 kmh SW 20.0 mph32.2 kmh 29.85 in1010.8 mb 0.00 in0.0 mm 0.00 in0.0 mm 0.00 in0.0 mm
04:15 AM 36.7°F2.6°C 21.1°F-6.1°C 53% 7.0 mph WSW11.3 kmh WSW 16.0 mph25.7 kmh 29.85 in1010.8 mb 0.00 in0.0 mm 0.00 in0.0 mm 0.00 in0.0 mm
04:30 AM 37.0°F2.8°C 21.5°F-5.8°C 53% 7.0 mph WSW11.3 kmh WSW 16.0 mph25.7 kmh 29.84 in1010.5 mb 0.00 in0.0 mm 0.00 in0.0 mm 0.00 in0.0 mm
04:45 AM 37.6°F3.1°C 23.7°F-4.6°C 57% 11.0 mph WSW17.7 kmh WSW 29.0 mph46.7 kmh 29.84 in1010.5 mb 0.00 in0.0 mm 0.00 in0.0 mm 0.00 in0.0 mm
05:00 AM 36.9°F2.7°C 26.6°F-3.0°C 66% 10.0 mph SW16.1 kmh SW 23.0 mph37.0 kmh 29.84 in1010.5 mb 0.00 in0.0 mm 0.00 in0.0 mm 0.00 in0.0 mm
05:15 AM 35.6°F2.0°C 28.1°F-2.2°C 74% 10.0 mph SW16.1 kmh SW 23.0 mph37.0 kmh 29.85 in1010.8 mb 0.00 in0.0 mm 0.00 in0.0 mm 0.00 in0.0 mm
05:30 AM 34.7°F1.5°C 29.5°F-1.4°C 81% 8.0 mph SW12.9 kmh SW 17.0 mph27.4 kmh 29.84 in1010.5 mb 0.00 in0.0 mm 0.00 in0.0 mm 0.00 in0.0 mm
05:45 AM 34.2°F1.2°C 30.4°F-0.9°C 86% 8.0 mph SW12.9 kmh SW 21.0 mph33.8 kmh 29.84 in1010.5 mb 0.00 in0.0 mm 0.00 in0.0 mm 0.00 in0.0 mm
06:00 AM 33.8°F1.0°C 30.9°F-0.6°C 89% 7.0 mph SW11.3 kmh SW 17.0 mph27.4 kmh 29.83 in1010.2 mb 0.01 in0.3 mm 0.01 in0.3 mm 0.01 in0.3 mm
06:15 AM 34.0°F1.1°C 30.8°F-0.7°C 88% 11.0 mph SW17.7 kmh SW 23.0 mph37.0 kmh 29.83 in1010.2 mb 0.01 in0.3 mm 0.00 in0.0 mm 0.01 in0.3 mm
06:30 AM 34.0°F1.1°C 30.8°F-0.7°C 88% 8.0 mph SW12.9 kmh SW 19.0 mph30.6 kmh 29.83 in1010.2 mb 0.01 in0.3 mm 0.00 in0.0 mm 0.01 in0.3 mm
06:45 AM 34.2°F1.2°C 31.3°F-0.4°C 89% 8.0 mph SW12.9 kmh SW 18.0 mph29.0 kmh 29.83 in1010.2 mb 0.01 in0.3 mm 0.00 in0.0 mm 0.01 in0.3 mm
07:00 AM 34.2°F1.2°C 31.3°F-0.4°C 89% 8.0 mph SW12.9 kmh SW 17.0 mph27.4 kmh 29.83 in1010.2 mb 0.00 in0.0 mm 0.00 in0.0 mm 0.01 in0.3 mm
07:15 AM 34.3°F1.3°C 31.7°F-0.2°C 90% 8.0 mph SW12.9 kmh SW 16.0 mph25.7 kmh 29.83 in1010.2 mb 0.01 in0.3 mm 0.04 in1.0 mm 0.02 in0.5 mm
07:30 AM 34.5°F1.4°C 31.9°F-0.1°C 90% 7.0 mph SW11.3 kmh SW 19.0 mph30.6 kmh 29.83 in1010.2 mb 0.01 in0.3 mm 0.00 in0.0 mm 0.02 in0.5 mm
07:45 AM 34.7°F1.5°C 31.8°F-0.1°C 89% 8.0 mph SW12.9 kmh SW 19.0 mph30.6 kmh 29.83 in1010.2 mb 0.01 in0.3 mm 0.00 in0.0 mm 0.02 in0.5 mm
08:00 AM 34.7°F1.5°C 31.8°F-0.1°C 89% 7.0 mph SW11.3 kmh SW 15.0 mph24.1 kmh 29.83 in1010.2 mb 0.01 in0.3 mm 0.00 in0.0 mm 0.02 in0.5 mm
08:15 AM 34.7°F1.5°C 32.1°F0.1°C 90% 6.0 mph SW9.7 kmh SW 13.0 mph20.9 kmh 29.83 in1010.2 mb 0.01 in0.3 mm 0.00 in0.0 mm 0.02 in0.5 mm
08:30 AM 34.5°F1.4°C 31.9°F-0.1°C 90% 5.0 mph SW8.0 kmh SW 14.0 mph22.5 kmh 29.83 in1010.2 mb 0.01 in0.3 mm 0.00 in0.0 mm 0.02 in0.5 mm
08:45 AM 34.5°F1.4°C 32.2°F0.1°C 91% 4.0 mph SW6.4 kmh SW 11.0 mph17.7 kmh 29.83 in1010.2 mb 0.02 in0.5 mm 0.04 in1.0 mm 0.03 in0.8 mm
09:00 AM 34.5°F1.4°C 32.2°F0.1°C 91% 4.0 mph SW6.4 kmh SW 11.0 mph17.7 kmh 29.83 in1010.2 mb 0.02 in0.5 mm 0.00 in0.0 mm 0.03 in0.8 mm
09:15 AM 34.5°F1.4°C 32.2°F0.1°C 91% 4.0 mph SW6.4 kmh SW 10.0 mph16.1 kmh 29.83 in1010.2 mb 0.02 in0.5 mm 0.00 in0.0 mm 0.04 in1.0 mm
09:30 AM 34.7°F1.5°C 32.3°F0.2°C 91% 5.0 mph SW8.0 kmh SW 12.0 mph19.3 kmh 29.83 in1010.2 mb 0.02 in0.5 mm 0.00 in0.0 mm 0.04 in1.0 mm
09:45 AM 34.7°F1.5°C 32.3°F0.2°C 91% 3.0 mph SW4.8 kmh SW 8.0 mph12.9 kmh 29.82 in1009.8 mb 0.02 in0.5 mm 0.00 in0.0 mm 0.05 in1.3 mm
10:00 AM 34.7°F1.5°C 32.3°F0.2°C 91% 2.0 mph SW3.2 kmh SW 6.0 mph9.7 kmh 29.82 in1009.8 mb 0.02 in0.5 mm 0.00 in0.0 mm 0.06 in1.5 mm
10:15 AM 34.7°F1.5°C 32.6°F0.3°C 92% 3.0 mph SW4.8 kmh SW 8.0 mph12.9 kmh 29.82 in1009.8 mb 0.02 in0.5 mm 0.00 in0.0 mm 0.06 in1.5 mm
10:30 AM 34.9°F1.6°C 32.8°F0.4°C 92% 3.0 mph SW4.8 kmh SW 9.0 mph14.5 kmh 29.82 in1009.8 mb 0.03 in0.8 mm 0.04 in1.0 mm 0.07 in1.8 mm
10:45 AM 34.9°F1.6°C 32.8°F0.4°C 92% 3.0 mph SW4.8 kmh SW 10.0 mph16.1 kmh 29.82 in1009.8 mb 0.03 in0.8 mm 0.00 in0.0 mm 0.08 in2.0 mm
11:00 AM 35.1°F1.7°C 33.0°F0.6°C 92% 3.0 mph SW4.8 kmh SW 7.0 mph11.3 kmh 29.82 in1009.8 mb 0.02 in0.5 mm 0.00 in0.0 mm 0.08 in2.0 mm
11:15 AM 35.1°F1.7°C 33.0°F0.6°C 92% 3.0 mph SW4.8 kmh SW 8.0 mph12.9 kmh 29.81 in1009.5 mb 0.02 in0.5 mm 0.00 in0.0 mm 0.09 in2.3 mm
11:30 AM 35.4°F1.9°C 33.3°F0.7°C 92% 5.0 mph SW8.0 kmh SW 14.0 mph22.5 kmh 29.81 in1009.5 mb 0.02 in0.5 mm 0.00 in0.0 mm 0.09 in2.3 mm
11:45 AM 35.6°F2.0°C 33.2°F0.7°C 91% 5.0 mph SW8.0 kmh SW 13.0 mph20.9 kmh 29.81 in1009.5 mb 0.02 in0.5 mm 0.00 in0.0 mm 0.09 in2.3 mm
12:00 PM 35.4°F1.9°C 33.1°F0.6°C 91% 5.0 mph SW8.0 kmh SW 12.0 mph19.3 kmh 29.81 in1009.5 mb 0.02 in0.5 mm 0.00 in0.0 mm 0.10 in2.5 mm
12:15 PM 35.8°F2.1°C 33.4°F0.8°C 91% 5.0 mph SW8.0 kmh SW 12.0 mph19.3 kmh 29.80 in1009.1 mb 0.02 in0.5 mm 0.00 in0.0 mm 0.11 in2.8 mm
12:30 PM 36.0°F2.2°C 33.6°F0.9°C 91% 6.0 mph SW9.7 kmh SW 13.0 mph20.9 kmh 29.80 in1009.1 mb 0.02 in0.5 mm 0.00 in0.0 mm 0.11 in2.8 mm
12:45 PM 36.0°F2.2°C 33.6°F0.9°C 91% 5.0 mph SW8.0 kmh SW 13.0 mph20.9 kmh 29.79 in1008.8 mb 0.02 in0.5 mm 0.00 in0.0 mm 0.12 in3.0 mm
01:00 PM 36.0°F2.2°C 33.6°F0.9°C 91% 5.0 mph SW8.0 kmh SW 13.0 mph20.9 kmh 29.78 in1008.5 mb 0.02 in0.5 mm 0.00 in0.0 mm 0.13 in3.3 mm
01:15 PM 36.3°F2.4°C 33.9°F1.1°C 91% 5.0 mph SW8.0 kmh SW 12.0 mph19.3 kmh 29.77 in1008.1 mb 0.02 in0.5 mm 0.00 in0.0 mm 0.13 in3.3 mm
01:30 PM 36.3°F2.4°C 33.9°F1.1°C 91% 7.0 mph SW11.3 kmh SW 15.0 mph24.1 kmh 29.76 in1007.8 mb 0.02 in0.5 mm 0.00 in0.0 mm 0.13 in3.3 mm
01:45 PM 36.0°F2.2°C 33.6°F0.9°C 91% 6.0 mph SW9.7 kmh SW 12.0 mph19.3 kmh 29.75 in1007.5 mb 0.02 in0.5 mm 0.00 in0.0 mm 0.14 in3.6 mm
02:00 PM 35.8°F2.1°C 33.4°F0.8°C 91% 3.0 mph SW4.8 kmh SW 9.0 mph14.5 kmh 29.74 in1007.1 mb 0.02 in0.5 mm 0.00 in0.0 mm 0.15 in3.8 mm
02:15 PM 35.8°F2.1°C 33.7°F0.9°C 92% 2.0 mph SW3.2 kmh SW 7.0 mph11.3 kmh 29.74 in1007.1 mb 0.02 in0.5 mm 0.00 in0.0 mm 0.15 in3.8 mm
02:30 PM 35.8°F2.1°C 33.7°F0.9°C 92% 2.0 mph SW3.2 kmh SW 5.0 mph8.0 kmh 29.73 in1006.8 mb 0.03 in0.8 mm 0.04 in1.0 mm 0.17 in4.3 mm
02:45 PM 35.6°F2.0°C 33.5°F0.8°C 92% 1.0 mph SW1.6 kmh SW 4.0 mph6.4 kmh 29.73 in1006.8 mb 0.03 in0.8 mm 0.00 in0.0 mm 0.17 in4.3 mm
03:00 PM 35.6°F2.0°C 33.5°F0.8°C 92% 1.0 mph SW1.6 kmh SW 4.0 mph6.4 kmh 29.73 in1006.8 mb 0.03 in0.8 mm 0.00 in0.0 mm 0.18 in4.6 mm
03:15 PM 35.4°F1.9°C 33.3°F0.7°C 92% 1.0 mph SW1.6 kmh SW 6.0 mph9.7 kmh 29.72 in1006.4 mb 0.05 in1.3 mm 0.08 in2.0 mm 0.20 in5.1 mm
03:30 PM 35.4°F1.9°C 33.3°F0.7°C 92% 2.0 mph SW3.2 kmh SW 4.0 mph6.4 kmh 29.72 in1006.4 mb 0.04 in1.0 mm 0.00 in0.0 mm 0.20 in5.1 mm
03:45 PM 35.4°F1.9°C 33.3°F0.7°C 92% 2.0 mph SW3.2 kmh SW 8.0 mph12.9 kmh 29.71 in1006.1 mb 0.03 in0.8 mm 0.00 in0.0 mm 0.20 in5.1 mm
04:00 PM 35.4°F1.9°C 33.3°F0.7°C 92% 2.0 mph SW3.2 kmh SW 6.0 mph9.7 kmh 29.71 in1006.1 mb 0.02 in0.5 mm 0.00 in0.0 mm 0.20 in5.1 mm
04:15 PM 35.4°F1.9°C 33.3°F0.7°C 92% 2.0 mph SW3.2 kmh SW 5.0 mph8.0 kmh 29.70 in1005.8 mb 0.01 in0.3 mm 0.00 in0.0 mm 0.20 in5.1 mm
04:30 PM 35.6°F2.0°C 33.5°F0.8°C 92% 2.0 mph SW3.2 kmh SW 5.0 mph8.0 kmh 29.71 in1006.1 mb 0.00 in0.0 mm 0.00 in0.0 mm 0.20 in5.1 mm
04:45 PM 35.6°F2.0°C 33.5°F0.8°C 92% 2.0 mph SW3.2 kmh SW 6.0 mph9.7 kmh 29.71 in1006.1 mb 0.00 in0.0 mm 0.00 in0.0 mm 0.20 in5.1 mm
05:00 PM 35.8°F2.1°C 33.7°F0.9°C 92% 2.0 mph SW3.2 kmh SW 7.0 mph11.3 kmh 29.71 in1006.1 mb 0.00 in0.0 mm 0.00 in0.0 mm 0.20 in5.1 mm
05:15 PM 35.8°F2.1°C 33.7°F0.9°C 92% 3.0 mph SW4.8 kmh SW 10.0 mph16.1 kmh 29.72 in1006.4 mb 0.00 in0.0 mm 0.00 in0.0 mm 0.20 in5.1 mm
05:30 PM 36.0°F2.2°C 33.9°F1.1°C 92% 4.0 mph SW6.4 kmh SW 11.0 mph17.7 kmh 29.71 in1006.1 mb 0.00 in0.0 mm 0.00 in0.0 mm 0.20 in5.1 mm
05:45 PM 36.0°F2.2°C 33.6°F0.9°C 91% 4.0 mph WSW6.4 kmh WSW 10.0 mph16.1 kmh 29.71 in1006.1 mb 0.00 in0.0 mm 0.00 in0.0 mm 0.20 in5.1 mm
06:00 PM 36.0°F2.2°C 33.6°F0.9°C 91% 3.0 mph SW4.8 kmh SW 9.0 mph14.5 kmh 29.71 in1006.1 mb 0.00 in0.0 mm 0.00 in0.0 mm 0.20 in5.1 mm
06:15 PM 35.8°F2.1°C 33.4°F0.8°C 91% 2.0 mph WSW3.2 kmh WSW 6.0 mph9.7 kmh 29.70 in1005.8 mb 0.00 in0.0 mm 0.00 in0.0 mm 0.20 in5.1 mm
06:30 PM 35.8°F2.1°C 33.4°F0.8°C 91% 3.0 mph SW4.8 kmh SW 9.0 mph14.5 kmh 29.70 in1005.8 mb 0.00 in0.0 mm 0.00 in0.0 mm 0.20 in5.1 mm
06:45 PM 35.8°F2.1°C 33.4°F0.8°C 91% 2.0 mph SW3.2 kmh SW 7.0 mph11.3 kmh 29.70 in1005.8 mb 0.00 in0.0 mm 0.00 in0.0 mm 0.20 in5.1 mm
07:00 PM 35.6°F2.0°C 33.2°F0.7°C 91% 3.0 mph SSW4.8 kmh SSW 7.0 mph11.3 kmh 29.70 in1005.8 mb 0.00 in0.0 mm 0.00 in0.0 mm 0.20 in5.1 mm
07:15 PM 35.4°F1.9°C 33.1°F0.6°C 91% 3.0 mph SW4.8 kmh SW 8.0 mph12.9 kmh 29.70 in1005.8 mb 0.00 in0.0 mm 0.00 in0.0 mm 0.20 in5.1 mm
07:30 PM 35.4°F1.9°C 33.1°F0.6°C 91% 3.0 mph SW4.8 kmh SW 7.0 mph11.3 kmh 29.70 in1005.8 mb 0.00 in0.0 mm 0.00 in0.0 mm 0.20 in5.1 mm
07:45 PM 35.4°F1.9°C 33.1°F0.6°C 91% 3.0 mph SW4.8 kmh SW 6.0 mph9.7 kmh 29.70 in1005.8 mb 0.00 in0.0 mm 0.00 in0.0 mm 0.20 in5.1 mm
08:00 PM 35.4°F1.9°C 33.1°F0.6°C 91% 2.0 mph SW3.2 kmh SW 7.0 mph11.3 kmh 29.70 in1005.8 mb 0.00 in0.0 mm 0.00 in0.0 mm 0.20 in5.1 mm
08:15 PM 35.4°F1.9°C 33.1°F0.6°C 91% 2.0 mph SW3.2 kmh SW 6.0 mph9.7 kmh 29.70 in1005.8 mb 0.00 in0.0 mm 0.00 in0.0 mm 0.20 in5.1 mm
08:30 PM 35.2°F1.8°C 32.9°F0.5°C 91% 2.0 mph SW3.2 kmh SW 5.0 mph8.0 kmh 29.71 in1006.1 mb 0.00 in0.0 mm 0.00 in0.0 mm 0.20 in5.1 mm
08:45 PM 29.5°F-1.4°C 26.4°F-3.1°C 88% 12.0 mph N19.3 kmh N 21.0 mph33.8 kmh 29.74 in1007.1 mb 0.01 in0.3 mm 0.04 in1.0 mm 0.21 in5.3 mm
09:00 PM 27.3°F-2.6°C 24.5°F-4.2°C 89% 8.0 mph NNW12.9 kmh NNW 18.0 mph29.0 kmh 29.76 in1007.8 mb 0.01 in0.3 mm 0.00 in0.0 mm 0.21 in5.3 mm
09:15 PM 26.2°F-3.2°C 24.0°F-4.4°C 91% 10.0 mph NNW16.1 kmh NNW 17.0 mph27.4 kmh 29.77 in1008.1 mb 0.01 in0.3 mm 0.00 in0.0 mm 0.21 in5.3 mm
09:30 PM 25.5°F-3.6°C 23.3°F-4.8°C 91% 9.0 mph NNW14.5 kmh NNW 17.0 mph27.4 kmh 29.77 in1008.1 mb 0.01 in0.3 mm 0.00 in0.0 mm 0.21 in5.3 mm
09:45 PM 25.2°F-3.8°C 22.9°F-5.1°C 91% 8.0 mph N12.9 kmh N 15.0 mph24.1 kmh 29.77 in1008.1 mb 0.01 in0.3 mm 0.00 in0.0 mm 0.22 in5.6 mm
10:00 PM 25.0°F-3.9°C 22.7°F-5.2°C 91% 9.0 mph N14.5 kmh N 16.0 mph25.7 kmh 29.78 in1008.5 mb 0.02 in0.5 mm 0.01 in0.3 mm 0.23 in5.8 mm
10:15 PM 24.6°F-4.1°C 22.4°F-5.3°C 91% 8.0 mph N12.9 kmh N 17.0 mph27.4 kmh 29.80 in1009.1 mb 0.02 in0.5 mm 0.00 in0.0 mm 0.23 in5.8 mm
10:30 PM 23.5°F-4.7°C 21.0°F-6.1°C 90% 12.0 mph NW19.3 kmh NW 19.0 mph30.6 kmh 29.80 in1009.1 mb 0.02 in0.5 mm 0.00 in0.0 mm 0.24 in6.1 mm
10:45 PM 23.0°F-5.0°C 20.5°F-6.4°C 90% 11.0 mph NW17.7 kmh NW 19.0 mph30.6 kmh 29.81 in1009.5 mb 0.02 in0.5 mm 0.00 in0.0 mm 0.24 in6.1 mm
11:00 PM 22.3°F-5.4°C 19.8°F-6.8°C 90% 12.0 mph NNW19.3 kmh NNW 22.0 mph35.4 kmh 29.81 in1009.5 mb 0.02 in0.5 mm 0.00 in0.0 mm 0.24 in6.1 mm
11:15 PM 21.9°F-5.6°C 19.4°F-7.0°C 90% 12.0 mph NNW19.3 kmh NNW 21.0 mph33.8 kmh 29.83 in1010.2 mb 0.02 in0.5 mm 0.00 in0.0 mm 0.24 in6.1 mm
11:30 PM 21.0°F-6.1°C 18.8°F-7.3°C 91% 14.0 mph NNW22.5 kmh NNW 27.0 mph43.5 kmh 29.83 in1010.2 mb 0.02 in0.5 mm 0.00 in0.0 mm 0.25 in6.4 mm
11:45 PM 21.0°F-6.1°C 18.8°F-7.3°C 91% 12.0 mph NW19.3 kmh NW 21.0 mph33.8 kmh 29.84 in1010.5 mb 0.02 in0.5 mm 0.00 in0.0 mm 0.25 in6.4 mm